Time;durP1;ratioP1;P1;durP2;ratioP2;P2;SDS_P1;SDS_P2;PMS_P1;PMS_P2;Temp;Humidity;BMP_temperature;BMP_pressure;BME280_temperature;BME280_humidity;BME280_pressure;Samples;Min_cycle;Max_cycle;Signal;HPM_P1;HPM_P2
2024/01/18 00:00:16;;;;;;;2.35;1.80;;;4.60;70.60;;;;;;6093978;23;20026;-77
2024/01/18 00:02:42;;;;;;;2.78;1.70;;;4.50;70.60;;;;;;6067708;23;20434;-76
2024/01/18 00:05:08;;;;;;;4.00;1.73;;;4.50;70.50;;;;;;6068530;23;20018;-76
2024/01/18 00:07:34;;;;;;;1.80;1.58;;;4.50;70.60;;;;;;6093563;23;20069;-77
2024/01/18 00:10:00;;;;;;;2.85;1.80;;;4.50;70.60;;;;;;6094296;23;20020;-76
2024/01/18 00:12:26;;;;;;;3.22;1.65;;;4.50;70.50;;;;;;6092897;23;20077;-76
2024/01/18 00:14:52;;;;;;;4.60;1.52;;;4.50;70.60;;;;;;6093798;23;20398;-76
2024/01/18 00:17:18;;;;;;;2.75;1.60;;;4.50;70.50;;;;;;6093729;23;20037;-75
2024/01/18 00:19:44;;;;;;;3.08;1.50;;;4.50;70.50;;;;;;6068079;23;20018;-76
2024/01/18 00:22:10;;;;;;;1.92;1.50;;;4.50;70.70;;;;;;6093661;23;20010;-73
2024/01/18 00:24:36;;;;;;;2.05;1.80;;;4.50;70.70;;;;;;6068583;23;20006;-77
2024/01/18 00:27:02;;;;;;;2.72;1.80;;;4.50;70.50;;;;;;6093608;23;20028;-77
2024/01/18 00:29:30;;;;;;;1.92;1.55;;;4.50;70.50;;;;;;6092004;23;20018;-77
2024/01/18 00:31:56;;;;;;;2.47;1.63;;;4.50;70.60;;;;;;6067658;23;20035;-77
2024/01/18 00:34:22;;;;;;;2.15;1.65;;;4.40;70.50;;;;;;6093182;23;20033;-76
2024/01/18 00:36:49;;;;;;;2.85;1.88;;;4.40;70.50;;;;;;6094061;23;20025;-77
2024/01/18 00:39:18;;;;;;;1.73;1.60;;;4.40;70.30;;;;;;6068150;23;20045;-77
2024/01/18 00:41:45;;;;;;;1.85;1.58;;;4.40;70.20;;;;;;6092891;23;20644;-76
2024/01/18 00:44:11;;;;;;;2.78;1.80;;;4.40;70.20;;;;;;6093058;23;20021;-77
2024/01/18 00:46:37;;;;;;;2.15;1.75;;;4.40;70.20;;;;;;6067733;23;20080;-75
2024/01/18 00:49:04;;;;;;;2.28;1.88;;;4.40;70.20;;;;;;6092614;23;20085;-75
2024/01/18 00:51:31;;;;;;;3.25;1.92;;;4.40;70.10;;;;;;6093097;23;20426;-77
2024/01/18 00:53:57;;;;;;;2.53;1.92;;;4.40;70.00;;;;;;6067916;23;20075;-76
2024/01/18 00:56:23;;;;;;;2.78;1.83;;;4.40;70.00;;;;;;6067625;23;20030;-76
2024/01/18 00:58:49;;;;;;;3.63;1.90;;;4.40;69.90;;;;;;6068091;23;20485;-76
2024/01/18 01:01:18;;;;;;;2.72;1.83;;;4.40;69.80;;;;;;6093264;23;20066;-75
2024/01/18 01:03:44;;;;;;;5.38;2.20;;;4.40;69.80;;;;;;6093432;23;20010;-76
2024/01/18 01:06:11;;;;;;;2.05;1.83;;;4.40;69.80;;;;;;6068007;23;20014;-76
2024/01/18 01:08:37;;;;;;;3.00;2.15;;;4.40;69.70;;;;;;6092936;23;20038;-76
2024/01/18 01:11:04;;;;;;;2.53;2.10;;;4.40;69.60;;;;;;6093136;23;20022;-76
2024/01/18 01:13:30;;;;;;;3.53;1.88;;;4.40;69.40;;;;;;6043640;23;20041;-77
2024/01/18 01:15:56;;;;;;;4.13;1.90;;;4.40;69.30;;;;;;6093440;23;20011;-76
2024/01/18 01:18:22;;;;;;;2.83;1.63;;;4.50;69.20;;;;;;6044160;23;20019;-76
2024/01/18 01:20:48;;;;;;;2.05;1.65;;;4.40;69.20;;;;;;6044178;23;20577;-76
2024/01/18 01:23:15;;;;;;;3.92;2.45;;;4.50;69.30;;;;;;6091667;23;20018;-76
2024/01/18 01:25:41;;;;;;;2.38;1.77;;;4.40;69.40;;;;;;6090913;23;20014;-76
2024/01/18 01:28:07;;;;;;;2.92;1.90;;;4.40;69.40;;;;;;6067602;23;20013;-76
2024/01/18 01:30:33;;;;;;;2.30;1.70;;;4.40;69.40;;;;;;6067728;23;20097;-76
2024/01/18 01:32:59;;;;;;;2.40;1.80;;;4.40;69.40;;;;;;6093246;23;20439;-77
2024/01/18 01:35:25;;;;;;;4.40;1.75;;;4.40;69.30;;;;;;6067084;23;20046;-76
2024/01/18 01:37:51;;;;;;;2.47;1.83;;;4.40;69.20;;;;;;6067774;23;20022;-77
2024/01/18 01:40:18;;;;;;;3.03;2.17;;;4.40;69.20;;;;;;6093259;23;20010;-77
2024/01/18 01:42:44;;;;;;;2.20;1.90;;;4.40;69.10;;;;;;6044143;23;20015;-77
2024/01/18 01:45:10;;;;;;;2.88;1.80;;;4.40;69.10;;;;;;6067427;23;20018;-76
2024/01/18 01:47:36;;;;;;;3.47;2.13;;;4.40;69.10;;;;;;6091300;23;20038;-75
2024/01/18 01:50:03;;;;;;;3.85;2.20;;;4.40;69.00;;;;;;6067505;23;20018;-76
2024/01/18 01:52:31;;;;;;;4.22;2.30;;;4.30;68.90;;;;;;6092874;23;20059;-75
2024/01/18 01:54:58;;;;;;;3.30;2.08;;;4.30;69.00;;;;;;6068219;23;20062;-75
2024/01/18 01:57:24;;;;;;;3.65;2.33;;;4.30;68.90;;;;;;6093043;23;20110;-75
2024/01/18 01:59:50;;;;;;;1.88;1.63;;;4.30;69.00;;;;;;6091520;23;20018;-76
2024/01/18 02:02:18;;;;;;;3.65;2.42;;;4.30;68.90;;;;;;6067378;23;20069;-75
2024/01/18 02:04:44;;;;;;;2.95;2.15;;;4.30;69.30;;;;;;6093240;23;20474;-75
2024/01/18 02:07:11;;;;;;;3.80;2.42;;;4.20;68.70;;;;;;6091830;23;20014;-74
2024/01/18 02:09:39;;;;;;;4.07;2.40;;;4.20;68.60;;;;;;6092994;23;20022;-74
2024/01/18 02:12:08;;;;;;;3.28;2.10;;;4.30;68.70;;;;;;6093029;23;20424;-76
2024/01/18 02:14:35;;;;;;;2.88;2.00;;;4.30;68.70;;;;;;6093043;23;20520;-74
2024/01/18 02:17:01;;;;;;;4.30;2.40;;;4.20;68.60;;;;;;6066992;23;20026;-74
2024/01/18 02:19:27;;;;;;;4.18;2.30;;;4.30;68.60;;;;;;6092781;23;20014;-74
2024/01/18 02:21:53;;;;;;;4.32;2.80;;;4.30;68.50;;;;;;6095099;23;20315;-75
2024/01/18 02:24:23;;;;;;;3.88;2.35;;;4.30;68.30;;;;;;6094528;23;20029;-75
2024/01/18 02:26:49;;;;;;;3.33;2.00;;;4.30;68.20;;;;;;6094901;23;20362;-75
2024/01/18 02:29:15;;;;;;;4.10;2.42;;;4.30;68.20;;;;;;6069330;23;20026;-75
2024/01/18 02:31:41;;;;;;;3.13;1.98;;;4.30;68.20;;;;;;6094948;23;20018;-75
2024/01/18 02:34:18;;;;;;;4.63;2.40;;;4.30;68.10;;;;;;6095119;23;20089;-77
2024/01/18 02:36:47;;;;;;;3.97;2.50;;;4.30;68.10;;;;;;6093257;23;20093;-77
2024/01/18 02:39:13;;;;;;;3.90;2.50;;;4.30;68.00;;;;;;6094968;23;20022;-77
2024/01/18 02:41:40;;;;;;;2.78;2.05;;;4.30;68.00;;;;;;6094648;23;20370;-77
2024/01/18 02:44:07;;;;;;;3.70;2.40;;;4.30;67.90;;;;;;6094854;23;20109;-77
2024/01/18 02:46:34;;;;;;;3.55;2.30;;;4.30;67.90;;;;;;6069192;23;20018;-77
2024/01/18 02:49:00;;;;;;;4.72;2.60;;;4.30;67.90;;;;;;6095231;23;20019;-77
2024/01/18 02:51:26;;;;;;;3.38;2.38;;;4.30;67.90;;;;;;6069111;23;20101;-77
2024/01/18 02:53:53;;;;;;;2.90;2.20;;;4.20;67.80;;;;;;6094517;23;20019;-77
2024/01/18 02:56:21;;;;;;;3.05;2.40;;;4.20;67.80;;;;;;6093039;23;20022;-75
2024/01/18 02:58:47;;;;;;;4.57;2.40;;;4.20;67.80;;;;;;6093822;23;20019;-79
2024/01/18 03:01:13;;;;;;;4.32;2.10;;;4.20;67.70;;;;;;6093744;23;20014;-77
2024/01/18 03:03:39;;;;;;;4.30;2.55;;;4.20;67.60;;;;;;6094369;23;20022;-76
2024/01/18 03:06:06;;;;;;;3.42;2.72;;;4.20;67.50;;;;;;6094618;23;20073;-76
2024/01/18 03:08:33;;;;;;;4.78;2.50;;;4.20;67.40;;;;;;6068505;23;20029;-77
2024/01/18 03:10:58;;;;;;;3.92;2.60;;;4.20;67.60;;;;;;6045038;23;20019;-76
2024/01/18 03:13:24;;;;;;;3.35;2.53;;;4.20;67.50;;;;;;6068630;23;20018;-76
2024/01/18 03:15:50;;;;;;;5.93;2.60;;;4.20;67.40;;;;;;6095031;23;20590;-76
2024/01/18 03:18:17;;;;;;;2.83;2.30;;;4.10;67.30;;;;;;6092581;23;20029;-77
2024/01/18 03:20:43;;;;;;;3.85;2.40;;;4.20;67.50;;;;;;6068735;23;20029;-77
2024/01/18 03:23:09;;;;;;;3.40;2.67;;;4.20;67.40;;;;;;6092751;23;20486;-77
2024/01/18 03:25:35;;;;;;;4.15;2.65;;;4.20;67.40;;;;;;6043854;23;20018;-78
2024/01/18 03:28:01;;;;;;;4.90;2.50;;;4.20;67.40;;;;;;6093200;23;20103;-78
2024/01/18 03:30:27;;;;;;;5.82;2.90;;;4.20;67.40;;;;;;6068591;23;20030;-77
2024/01/18 03:32:53;;;;;;;2.67;2.25;;;4.20;67.20;;;;;;6068577;23;20046;-77
2024/01/18 03:35:19;;;;;;;4.80;2.70;;;4.20;67.20;;;;;;6094166;23;20033;-77
2024/01/18 03:37:46;;;;;;;5.35;2.50;;;4.20;67.10;;;;;;6094679;23;20038;-77
2024/01/18 03:40:12;;;;;;;3.92;2.83;;;4.20;67.20;;;;;;6094468;23;20077;-78
2024/01/18 03:42:42;;;;;;;3.42;2.40;;;4.20;67.20;;;;;;6094621;23;20045;-77
2024/01/18 03:45:08;;;;;;;4.18;3.17;;;4.20;67.00;;;;;;6092690;23;20660;-77
2024/01/18 03:47:34;;;;;;;3.72;2.67;;;4.20;67.00;;;;;;6068750;23;20080;-77
2024/01/18 03:50:00;;;;;;;3.47;2.53;;;4.20;67.10;;;;;;6045225;23;20117;-77
2024/01/18 03:52:26;;;;;;;4.47;3.22;;;4.20;66.90;;;;;;6095533;23;20025;-77
2024/01/18 03:54:52;;;;;;;5.47;2.88;;;4.20;66.80;;;;;;6093465;23;20382;-77
2024/01/18 03:57:18;;;;;;;5.88;3.35;;;4.20;66.80;;;;;;6094016;23;20030;-77
2024/01/18 03:59:45;;;;;;;3.78;3.00;;;4.20;66.70;;;;;;6093728;23;20026;-77
2024/01/18 04:02:11;;;;;;;3.95;2.83;;;4.20;66.70;;;;;;6094609;23;20022;-78
2024/01/18 04:04:37;;;;;;;3.42;2.88;;;4.10;66.60;;;;;;6068247;23;20026;-77
2024/01/18 04:07:03;;;;;;;4.80;3.10;;;4.20;66.50;;;;;;6094525;23;20007;-78
2024/01/18 04:09:29;;;;;;;4.60;3.15;;;4.10;66.40;;;;;;6093339;23;20026;-78
2024/01/18 04:11:55;;;;;;;3.30;2.85;;;4.10;66.30;;;;;;6044635;23;20014;-78
2024/01/18 04:14:21;;;;;;;3.80;2.70;;;4.10;66.30;;;;;;6092298;23;20426;-77
2024/01/18 04:16:47;;;;;;;5.13;3.10;;;4.10;66.30;;;;;;6094081;23;20026;-77
2024/01/18 04:19:13;;;;;;;4.43;3.10;;;4.10;66.20;;;;;;6092235;23;20010;-77
2024/01/18 04:21:39;;;;;;;4.78;3.30;;;4.10;66.10;;;;;;6093910;23;20003;-77
2024/01/18 04:24:05;;;;;;;5.60;3.53;;;4.10;66.00;;;;;;6092715;23;20026;-73
2024/01/18 04:26:33;;;;;;;6.22;3.75;;;4.10;65.90;;;;;;6091541;23;20026;-73
2024/01/18 04:29:00;;;;;;;6.75;3.97;;;4.10;65.80;;;;;;6093351;23;20406;-74
2024/01/18 04:31:26;;;;;;;6.18;3.47;;;4.10;65.50;;;;;;6092042;23;20018;-78
2024/01/18 04:33:55;;;;;;;4.90;3.38;;;4.10;65.50;;;;;;6067784;23;20014;-74
2024/01/18 04:36:21;;;;;;;7.22;3.58;;;4.10;65.30;;;;;;6093004;23;20026;-73
2024/01/18 04:38:47;;;;;;;7.13;4.32;;;4.10;66.00;;;;;;6091705;23;20094;-74
2024/01/18 04:41:15;;;;;;;7.13;4.10;;;4.10;65.40;;;;;;6092405;23;20018;-73
2024/01/18 04:43:41;;;;;;;6.80;4.07;;;4.10;65.40;;;;;;6090704;23;20014;-74
2024/01/18 04:46:09;;;;;;;5.93;3.65;;;4.10;65.30;;;;;;6093582;23;20038;-75
2024/01/18 04:48:38;;;;;;;7.28;4.30;;;4.10;65.30;;;;;;6093391;23;20507;-76
2024/01/18 04:51:05;;;;;;;8.02;4.55;;;4.10;65.50;;;;;;6092820;23;20062;-74
2024/01/18 04:53:31;;;;;;;8.45;4.47;;;4.10;65.30;;;;;;6093766;23;20339;-76
2024/01/18 04:55:57;;;;;;;9.10;4.65;;;4.10;65.40;;;;;;6067595;23;20026;-76
2024/01/18 04:58:23;;;;;;;9.00;4.55;;;4.10;65.40;;;;;;6093343;23;20362;-76
2024/01/18 05:00:49;;;;;;;10.80;5.07;;;4.10;65.70;;;;;;6093809;23;20398;-75
2024/01/18 05:03:16;;;;;;;9.95;5.20;;;4.10;66.30;;;;;;6092827;23;20027;-76
2024/01/18 05:05:42;;;;;;;11.65;5.70;;;4.10;67.00;;;;;;6092488;23;20018;-75
2024/01/18 05:08:08;;;;;;;9.25;5.15;;;4.10;67.40;;;;;;6090413;23;20474;-76
2024/01/18 05:10:34;;;;;;;8.40;5.15;;;4.10;68.30;;;;;;6066429;23;20027;-76
2024/01/18 05:13:00;;;;;;;9.65;5.40;;;4.10;68.60;;;;;;6092680;23;20010;-76
2024/01/18 05:15:26;;;;;;;9.82;5.35;;;4.10;68.90;;;;;;6065731;23;20026;-76
2024/01/18 05:17:54;;;;;;;11.77;5.85;;;4.10;68.90;;;;;;6091732;23;20038;-76
2024/01/18 05:20:20;;;;;;;10.43;6.43;;;4.10;68.80;;;;;;6090329;23;20101;-76
2024/01/18 05:22:46;;;;;;;12.55;6.57;;;4.10;68.30;;;;;;6092162;23;20014;-76
2024/01/18 05:25:13;;;;;;;11.57;6.50;;;4.10;68.20;;;;;;6092095;23;20046;-77
2024/01/18 05:27:40;;;;;;;9.98;6.07;;;4.10;68.00;;;;;;6092960;23;20021;-76
2024/01/18 05:30:07;;;;;;;11.82;6.45;;;4.10;67.80;;;;;;6093296;23;20020;-75
2024/01/18 05:32:33;;;;;;;11.75;6.20;;;4.10;67.50;;;;;;6091291;23;20122;-76
2024/01/18 05:35:03;;;;;;;12.68;6.53;;;4.10;67.30;;;;;;6092860;23;20668;-75
2024/01/18 05:37:29;;;;;;;11.88;6.57;;;4.10;67.00;;;;;;6092573;23;20020;-75
2024/01/18 05:39:55;;;;;;;11.25;6.32;;;4.10;67.20;;;;;;6093690;23;20398;-75
2024/01/18 05:42:23;;;;;;;10.48;5.97;;;4.10;67.20;;;;;;6067253;23;20054;-74
2024/01/18 05:44:50;;;;;;;11.45;6.55;;;4.10;67.20;;;;;;6092339;23;20084;-78
2024/01/18 05:47:16;;;;;;;9.55;5.38;;;4.10;67.00;;;;;;6068286;23;20368;-85
2024/01/18 05:49:42;;;;;;;7.38;5.18;;;4.10;67.00;;;;;;6093222;23;20021;-83
2024/01/18 05:52:08;;;;;;;11.30;5.70;;;4.10;67.40;;;;;;6069143;23;20501;-82
2024/01/18 05:54:35;;;;;;;7.40;4.70;;;4.20;67.50;;;;;;6094371;23;20030;-85
2024/01/18 05:57:02;;;;;;;6.53;4.70;;;4.20;67.60;;;;;;6096153;23;20053;-82
2024/01/18 05:59:28;;;;;;;9.07;4.88;;;4.20;68.00;;;;;;6095077;23;20076;-82
2024/01/18 06:01:55;;;;;;;9.13;5.03;;;4.20;68.10;;;;;;6070194;23;20022;-80
2024/01/18 06:04:21;;;;;;;7.90;4.70;;;4.20;67.90;;;;;;6095215;23;20014;-80
2024/01/18 06:06:47;;;;;;;8.63;4.75;;;4.20;68.00;;;;;;6046832;23;20457;-80
2024/01/18 06:09:14;;;;;;;7.47;4.65;;;4.20;67.90;;;;;;6050458;23;20022;-80
2024/01/18 06:11:41;;;;;;;9.02;4.60;;;4.20;68.00;;;;;;6094488;23;20022;-81
2024/01/18 06:14:06;;;;;;;8.85;4.40;;;4.20;68.30;;;;;;6070228;23;20022;-81
2024/01/18 06:16:32;;;;;;;6.50;4.35;;;4.20;68.80;;;;;;6094095;23;20014;-81
2024/01/18 06:18:58;;;;;;;8.27;4.22;;;4.20;69.10;;;;;;6096090;23;20094;-80
2024/01/18 06:21:24;;;;;;;6.75;4.55;;;4.20;69.30;;;;;;6095454;23;20019;-80
2024/01/18 06:23:51;;;;;;;8.32;4.20;;;4.30;69.60;;;;;;6069890;23;20132;-81
2024/01/18 06:26:17;;;;;;;6.65;4.00;;;4.30;69.80;;;;;;6093903;23;20068;-80
2024/01/18 06:28:42;;;;;;;9.68;4.38;;;4.30;69.90;;;;;;6095475;23;20097;-80
2024/01/18 06:31:09;;;;;;;8.00;4.68;;;4.30;69.70;;;;;;6095839;23;20528;-80
2024/01/18 06:33:35;;;;;;;5.85;4.18;;;4.30;69.60;;;;;;6069770;23;20034;-81
2024/01/18 06:36:02;;;;;;;7.00;4.22;;;4.30;69.50;;;;;;6094835;23;20454;-81
2024/01/18 06:38:29;;;;;;;7.10;4.30;;;4.30;69.60;;;;;;6069118;23;20018;-80
2024/01/18 06:41:13;;;;;;;5.70;3.80;;;4.30;69.50;;;;;;6093497;23;20435;-80
2024/01/18 06:43:39;;;;;;;6.55;4.05;;;4.30;69.30;;;;;;6091870;23;20015;-80
2024/01/18 06:46:15;;;;;;;11.48;3.80;;;4.40;69.00;;;;;;6066617;23;20063;-81
2024/01/18 06:48:42;;;;;;;6.00;3.80;;;4.40;69.00;;;;;;6068480;23;20458;-80
2024/01/18 06:51:09;;;;;;;5.68;3.90;;;4.40;69.10;;;;;;6093286;23;20509;-79
2024/01/18 06:53:35;;;;;;;5.60;4.25;;;4.40;69.30;;;;;;6092015;23;20022;-81
2024/01/18 06:56:01;;;;;;;8.50;4.20;;;4.40;69.40;;;;;;6068465;23;20022;-81
2024/01/18 06:58:27;;;;;;;5.75;3.97;;;4.40;69.40;;;;;;6067405;23;20025;-81
2024/01/18 07:00:53;;;;;;;7.05;3.35;;;4.50;69.50;;;;;;6068577;23;20010;-80
2024/01/18 07:03:19;;;;;;;8.13;4.22;;;4.50;69.40;;;;;;6091575;23;20029;-80
2024/01/18 07:06:04;;;;;;;5.20;3.20;;;4.50;69.50;;;;;;6067387;23;20018;-82
2024/01/18 07:08:30;;;;;;;6.15;4.05;;;4.50;69.40;;;;;;6068982;23;20019;-85
2024/01/18 07:10:57;;;;;;;6.72;4.28;;;4.50;69.40;;;;;;6021415;23;20034;-85
2024/01/18 07:13:26;;;;;;;5.85;3.75;;;4.50;69.30;;;;;;6069810;23;20537;-83
2024/01/18 07:15:52;;;;;;;5.78;3.72;;;4.50;69.20;;;;;;6022160;23;20517;-85
2024/01/18 07:18:18;;;;;;;8.52;4.30;;;4.50;68.80;;;;;;6046238;23;20064;-84
2024/01/18 07:20:44;;;;;;;6.43;4.43;;;4.60;68.50;;;;;;6045632;23;20018;-84
2024/01/18 07:23:10;;;;;;;6.90;4.60;;;4.60;68.10;;;;;;6050133;23;20029;-85
2024/01/18 07:25:37;;;;;;;5.88;4.25;;;4.50;67.80;;;;;;6021299;23;20097;-84
2024/01/18 07:28:03;;;;;;;8.02;4.40;;;4.60;67.70;;;;;;6045612;23;20017;-82
2024/01/18 07:30:29;;;;;;;6.90;4.00;;;4.60;67.50;;;;;;6019598;23;20505;-82
2024/01/18 07:32:55;;;;;;;6.13;4.07;;;4.60;67.30;;;;;;6020423;23;20359;-83
2024/01/18 07:35:21;;;;;;;8.98;4.88;;;4.60;67.10;;;;;;6020923;23;20025;-83
2024/01/18 07:37:47;;;;;;;7.05;4.03;;;4.60;66.90;;;;;;6067631;23;20089;-83
2024/01/18 07:40:14;;;;;;;5.57;3.70;;;4.60;66.70;;;;;;6069210;23;20010;-81
2024/01/18 07:42:40;;;;;;;7.28;4.32;;;4.60;66.60;;;;;;6069077;23;20029;-82
2024/01/18 07:45:07;;;;;;;7.18;4.30;;;4.60;66.30;;;;;;6069394;23;20059;-84
2024/01/18 07:47:33;;;;;;;6.47;3.90;;;4.60;66.20;;;;;;6021117;23;20026;-82
2024/01/18 07:49:59;;;;;;;7.95;4.15;;;4.60;66.00;;;;;;6093069;23;20074;-81
2024/01/18 07:52:25;;;;;;;5.90;4.30;;;4.50;66.30;;;;;;6021507;23;20010;-82
2024/01/18 07:54:51;;;;;;;7.05;4.15;;;4.60;65.60;;;;;;6045977;23;20101;-82
2024/01/18 07:57:18;;;;;;;6.25;4.30;;;4.60;65.30;;;;;;6094057;23;20048;-82
2024/01/18 07:59:44;;;;;;;7.35;4.15;;;4.60;65.20;;;;;;6069060;23;20116;-83
2024/01/18 08:02:10;;;;;;;6.72;4.25;;;4.60;65.30;;;;;;6045473;23;20018;-82
2024/01/18 08:04:36;;;;;;;5.65;3.70;;;4.60;65.30;;;;;;6078034;23;20075;-83
2024/01/18 08:07:02;;;;;;;5.80;3.72;;;4.60;65.40;;;;;;6044736;23;20014;-83
2024/01/18 08:09:47;;;;;;;5.28;3.70;;;4.60;65.40;;;;;;6048634;23;20018;-83
2024/01/18 08:12:13;;;;;;;9.35;4.20;;;4.60;65.30;;;;;;6068192;23;20347;-82
2024/01/18 08:14:43;;;;;;;6.30;3.97;;;4.60;65.20;;;;;;6068886;23;20073;-81
2024/01/18 08:17:09;;;;;;;7.30;3.80;;;4.60;65.30;;;;;;6020909;23;20073;-82
2024/01/18 08:19:38;;;;;;;4.90;3.75;;;4.60;65.20;;;;;;6069183;23;20113;-83
2024/01/18 08:22:04;;;;;;;5.85;4.28;;;4.60;65.20;;;;;;6046475;23;20462;-82
2024/01/18 08:24:49;;;;;;;6.20;3.90;;;4.60;65.00;;;;;;6048023;23;20033;-82
2024/01/18 08:27:15;;;;;;;6.00;3.70;;;4.60;64.90;;;;;;6067578;23;20073;-82
2024/01/18 08:29:41;;;;;;;5.45;3.40;;;4.60;65.00;;;;;;6089393;23;20041;-83
2024/01/18 08:32:08;;;;;;;5.90;3.58;;;4.60;64.80;;;;;;6068253;23;20018;-83
2024/01/18 08:34:35;;;;;;;5.03;3.50;;;4.60;64.70;;;;;;6093898;23;20341;-81
2024/01/18 08:37:03;;;;;;;4.93;3.88;;;4.60;64.70;;;;;;6044201;23;20048;-82
2024/01/18 08:39:29;;;;;;;5.45;3.85;;;4.60;64.50;;;;;;6066721;23;20042;-83
2024/01/18 08:41:59;;;;;;;6.50;3.70;;;4.60;64.50;;;;;;6044079;23;20509;-83
2024/01/18 08:44:28;;;;;;;5.18;3.40;;;4.60;64.40;;;;;;6019700;23;20029;-82
2024/01/18 08:46:54;;;;;;;5.80;3.65;;;4.60;64.30;;;;;;6092970;23;20026;-81
2024/01/18 08:49:24;;;;;;;5.45;3.63;;;4.60;64.40;;;;;;6091614;23;20101;-82
2024/01/18 08:51:51;;;;;;;4.68;3.92;;;4.60;64.00;;;;;;6044832;23;20017;-81
2024/01/18 08:54:18;;;;;;;5.35;3.80;;;4.50;63.40;;;;;;6067604;23;20050;-82
2024/01/18 08:56:44;;;;;;;7.43;3.42;;;4.60;63.30;;;;;;6090713;23;20473;-82
2024/01/18 08:59:11;;;;;;;5.60;3.85;;;4.50;63.20;;;;;;6090585;23;20022;-82
2024/01/18 09:01:36;;;;;;;4.80;3.20;;;4.50;63.00;;;;;;6066849;23;20021;-82
2024/01/18 09:04:03;;;;;;;4.97;3.25;;;4.60;63.20;;;;;;6043150;23;20101;-84
2024/01/18 09:06:29;;;;;;;7.82;3.78;;;4.50;62.90;;;;;;6093107;23;20079;-84
2024/01/18 09:08:55;;;;;;;4.60;3.35;;;4.50;62.80;;;;;;6065960;23;20022;-82
2024/01/18 09:11:21;;;;;;;4.60;3.10;;;4.50;63.00;;;;;;6065931;23;20504;-81
2024/01/18 09:13:47;;;;;;;5.00;3.13;;;4.60;63.20;;;;;;6090913;23;20010;-81
2024/01/18 09:16:16;;;;;;;5.47;3.03;;;4.50;63.20;;;;;;6067937;23;20154;-82
2024/01/18 09:18:42;;;;;;;4.68;3.03;;;4.50;62.90;;;;;;6066789;23;20015;-80
2024/01/18 09:21:08;;;;;;;5.88;3.28;;;4.50;62.50;;;;;;6091597;23;20101;-81
2024/01/18 09:23:36;;;;;;;3.78;2.90;;;4.50;62.50;;;;;;6042657;23;20073;-83
2024/01/18 09:26:02;;;;;;;4.00;2.88;;;4.50;62.60;;;;;;6066571;23;20022;-81
2024/01/18 09:28:28;;;;;;;4.30;2.80;;;4.50;62.50;;;;;;6066479;23;20010;-81
2024/01/18 09:30:54;;;;;;;5.53;2.83;;;4.50;62.30;;;;;;6065141;23;20010;-80
2024/01/18 09:33:20;;;;;;;3.70;2.85;;;4.50;62.00;;;;;;6043000;23;20109;-81
2024/01/18 09:35:46;;;;;;;4.25;2.67;;;4.50;62.00;;;;;;6092171;23;20042;-82
2024/01/18 09:38:12;;;;;;;4.47;2.90;;;4.50;62.00;;;;;;6091885;23;20014;-81
2024/01/18 09:40:39;;;;;;;5.03;2.90;;;4.50;61.70;;;;;;6090541;23;20014;-83
2024/01/18 09:43:07;;;;;;;5.07;3.33;;;4.50;61.50;;;;;;6043735;23;20010;-83
2024/01/18 09:45:39;;;;;;;5.15;2.90;;;4.50;61.30;;;;;;6067947;23;20019;-83
2024/01/18 09:48:07;;;;;;;4.80;2.90;;;4.50;61.60;;;;;;6092666;23;20026;-81
2024/01/18 09:50:41;;;;;;;3.83;2.80;;;4.50;61.30;;;;;;6068103;23;20412;-82
2024/01/18 09:53:08;;;;;;;3.63;2.45;;;4.50;61.20;;;;;;6067487;23;20014;-82
2024/01/18 09:55:34;;;;;;;3.53;2.42;;;4.50;61.20;;;;;;6020827;23;20049;-81
2024/01/18 09:58:02;;;;;;;3.40;2.53;;;4.50;61.00;;;;;;6093409;23;20346;-83
2024/01/18 10:00:31;;;;;;;5.32;2.47;;;4.50;60.70;;;;;;6067543;23;20022;-82
2024/01/18 10:02:58;;;;;;;3.85;2.13;;;4.50;60.70;;;;;;6092923;23;20015;-81
2024/01/18 10:05:25;;;;;;;5.68;2.33;;;4.50;60.50;;;;;;6043243;23;20026;-85
2024/01/18 10:07:52;;;;;;;4.00;2.33;;;4.50;60.70;;;;;;6044732;23;20458;-82
2024/01/18 10:10:18;;;;;;;2.92;2.22;;;4.50;60.80;;;;;;6068020;23;20010;-83
2024/01/18 10:12:47;;;;;;;3.03;2.10;;;4.50;60.80;;;;;;6091955;23;20039;-80
2024/01/18 10:15:32;;;;;;;3.47;2.00;;;4.50;61.00;;;;;;6048701;23;20030;-83
2024/01/18 10:18:03;;;;;;;2.67;2.20;;;4.50;61.00;;;;;;6042427;23;20065;-82
2024/01/18 10:20:29;;;;;;;2.35;1.70;;;4.50;61.10;;;;;;6065975;23;20243;-82
2024/01/18 10:22:55;;;;;;;3.30;2.10;;;4.50;61.30;;;;;;6091494;23;20513;-82
2024/01/18 10:25:26;;;;;;;3.08;2.38;;;4.50;61.10;;;;;;6067364;23;20327;-80
2024/01/18 10:27:54;;;;;;;2.85;1.88;;;4.50;61.10;;;;;;6093913;23;20017;-81
2024/01/18 10:30:20;;;;;;;2.72;1.98;;;4.60;61.10;;;;;;6068144;23;20378;-82
2024/01/18 10:32:47;;;;;;;2.80;2.00;;;4.50;61.10;;;;;;6020650;23;20020;-82
2024/01/18 10:35:24;;;;;;;3.03;1.80;;;4.50;61.00;;;;;;6068518;23;20549;-82
2024/01/18 10:38:04;;;;;;;2.30;2.00;;;4.60;61.10;;;;;;6044504;23;20015;-83
2024/01/18 10:40:33;;;;;;;2.65;1.60;;;4.60;61.30;;;;;;6093713;23;20007;-82
2024/01/18 10:43:03;;;;;;;3.38;2.00;;;4.60;61.30;;;;;;6070638;23;20093;-80
2024/01/18 10:45:31;;;;;;;1.90;1.50;;;4.60;61.30;;;;;;6070115;23;20097;-82
2024/01/18 10:47:58;;;;;;;2.50;1.77;;;4.60;61.30;;;;;;6069753;23;20022;-82
2024/01/18 10:50:26;;;;;;;1.88;1.73;;;4.60;61.30;;;;;;6045462;23;20026;-83
2024/01/18 10:52:53;;;;;;;2.50;1.70;;;4.60;61.40;;;;;;6069720;23;20018;-83
2024/01/18 10:55:19;;;;;;;3.80;2.08;;;4.60;61.40;;;;;;6095327;23;20017;-82
2024/01/18 10:57:45;;;;;;;1.45;1.35;;;4.60;61.50;;;;;;6095575;23;20007;-82
2024/01/18 11:00:15;;;;;;;1.92;1.63;;;4.60;61.50;;;;;;6068545;23;20026;-81
2024/01/18 11:02:44;;;;;;;2.72;1.60;;;4.60;61.10;;;;;;6067358;23;20470;-81
2024/01/18 11:05:17;;;;;;;2.53;1.98;;;4.60;60.90;;;;;;6093009;23;20101;-81
2024/01/18 11:07:43;;;;;;;3.65;1.90;;;4.60;60.90;;;;;;6067805;23;20488;-82
2024/01/18 11:10:11;;;;;;;3.33;1.70;;;4.60;60.80;;;;;;6091552;23;20015;-83
2024/01/18 11:12:39;;;;;;;3.28;1.70;;;4.60;60.50;;;;;;6091925;23;20023;-81
2024/01/18 11:15:07;;;;;;;2.47;1.60;;;4.60;60.40;;;;;;6091961;23;20426;-82
2024/01/18 11:17:46;;;;;;;4.13;1.70;;;4.60;60.20;;;;;;6093704;23;20030;-81
2024/01/18 11:20:13;;;;;;;2.55;1.65;;;4.60;60.30;;;;;;6093537;23;20029;-83
2024/01/18 11:22:40;;;;;;;2.67;1.80;;;4.60;60.10;;;;;;6068696;23;20405;-85
2024/01/18 11:25:12;;;;;;;3.22;1.80;;;4.60;59.90;;;;;;6092280;23;20011;-83
2024/01/18 11:27:42;;;;;;;1.83;1.60;;;4.60;59.50;;;;;;6068526;23;20652;-83
2024/01/18 11:30:12;;;;;;;3.38;1.80;;;4.60;59.70;;;;;;6020039;23;20025;-74
2024/01/18 11:32:39;;;;;;;3.88;2.28;;;4.60;59.60;;;;;;6092290;23;20503;-75
2024/01/18 11:35:13;;;;;;;3.35;1.98;;;4.60;59.60;;;;;;6091282;23;20538;-75
2024/01/18 11:37:39;;;;;;;4.35;2.15;;;4.60;59.70;;;;;;6065762;23;20022;-75
2024/01/18 11:40:10;;;;;;;2.75;1.95;;;4.50;59.70;;;;;;6066090;23;20033;-75
2024/01/18 11:42:43;;;;;;;3.03;2.00;;;4.60;59.80;;;;;;6066138;23;20077;-76
2024/01/18 11:45:18;;;;;;;3.03;2.00;;;4.60;59.80;;;;;;6065683;23;20022;-75
2024/01/18 11:47:47;;;;;;;4.32;1.92;;;4.60;59.50;;;;;;6068195;23;20030;-74
2024/01/18 11:50:14;;;;;;;2.72;1.75;;;4.60;59.50;;;;;;6092645;23;20500;-73
2024/01/18 11:52:42;;;;;;;3.72;2.15;;;4.50;59.10;;;;;;6067167;23;20422;-75
2024/01/18 11:55:12;;;;;;;4.55;2.08;;;4.50;58.90;;;;;;6093458;23;20399;-74
2024/01/18 11:57:38;;;;;;;2.85;1.73;;;4.50;59.20;;;;;;6093166;23;20473;-74
2024/01/18 12:00:05;;;;;;;4.20;2.00;;;4.50;59.50;;;;;;6067582;23;20034;-74
2024/01/18 12:02:37;;;;;;;3.15;1.75;;;4.50;59.50;;;;;;6093115;23;20083;-75
2024/01/18 12:05:04;;;;;;;2.97;1.77;;;4.50;59.70;;;;;;6067005;23;20021;-74
2024/01/18 12:07:32;;;;;;;2.85;1.80;;;4.50;59.60;;;;;;6067663;23;20018;-75
2024/01/18 12:09:58;;;;;;;4.55;1.70;;;4.50;59.70;;;;;;6093885;23;20614;-75
2024/01/18 12:12:24;;;;;;;2.97;2.03;;;4.50;59.30;;;;;;6068116;23;20077;-75
2024/01/18 12:14:50;;;;;;;3.35;1.80;;;4.50;59.20;;;;;;6093570;23;20038;-75
2024/01/18 12:17:17;;;;;;;3.10;1.67;;;4.50;59.20;;;;;;6093021;23;20478;-74
2024/01/18 12:19:45;;;;;;;2.17;1.50;;;4.60;59.30;;;;;;6093092;23;20051;-76
2024/01/18 12:22:13;;;;;;;2.33;1.38;;;4.60;59.20;;;;;;6068759;23;20129;-74
2024/01/18 12:24:40;;;;;;;4.13;2.10;;;4.60;59.50;;;;;;6067890;23;20023;-75
2024/01/18 12:27:07;;;;;;;2.72;1.95;;;4.60;59.50;;;;;;6092895;23;20030;-74
2024/01/18 12:29:37;;;;;;;3.83;1.88;;;4.60;59.40;;;;;;6092774;23;20023;-74
2024/01/18 12:32:04;;;;;;;4.57;1.95;;;4.50;59.00;;;;;;6067501;23;20070;-74
2024/01/18 12:34:32;;;;;;;3.08;1.70;;;4.60;58.80;;;;;;6092884;23;20083;-74
2024/01/18 12:37:00;;;;;;;2.03;1.55;;;4.50;58.90;;;;;;6067468;23;20018;-74
2024/01/18 12:39:26;;;;;;;2.53;1.90;;;4.60;58.90;;;;;;6067491;23;20455;-75
2024/01/18 12:41:55;;;;;;;3.00;1.95;;;4.60;58.90;;;;;;6093087;23;20018;-74
2024/01/18 12:44:22;;;;;;;2.53;1.92;;;4.50;58.90;;;;;;6092879;23;20015;-74
2024/01/18 12:46:51;;;;;;;2.60;1.83;;;4.60;59.20;;;;;;6066797;23;20106;-74
2024/01/18 12:49:18;;;;;;;2.15;1.58;;;4.60;59.10;;;;;;6092882;23;20014;-74
2024/01/18 12:51:55;;;;;;;2.00;1.73;;;4.50;58.90;;;;;;6094000;23;20014;-74
2024/01/18 12:54:23;;;;;;;4.60;2.08;;;4.50;59.20;;;;;;6093325;23;20046;-74
2024/01/18 12:57:06;;;;;;;2.15;1.70;;;4.50;59.20;;;;;;6092529;23;20094;-74